createdAt,value
2019-01-12T00:00:53.566Z,2.60
2019-01-12T00:03:21.027Z,2.50
2019-01-12T00:05:48.396Z,2.60
2019-01-12T00:08:15.834Z,2.60
2019-01-12T00:10:43.297Z,2.50
2019-01-12T00:13:10.649Z,2.60
2019-01-12T00:15:38.089Z,2.70
2019-01-12T00:18:05.472Z,2.60
2019-01-12T00:20:32.930Z,2.70
2019-01-12T00:23:00.386Z,2.70
2019-01-12T00:25:27.803Z,2.70
2019-01-12T00:27:55.137Z,2.70
2019-01-12T00:30:22.674Z,2.70
2019-01-12T00:32:50.089Z,2.70
2019-01-12T00:35:17.534Z,2.70
2019-01-12T00:37:44.941Z,2.80
2019-01-12T00:40:12.477Z,2.70
2019-01-12T00:42:39.825Z,2.60
2019-01-12T00:45:08.794Z,2.60
2019-01-12T00:47:36.166Z,2.60
2019-01-12T00:50:05.237Z,2.60
2019-01-12T00:52:33.966Z,2.60
2019-01-12T00:55:01.347Z,2.60
2019-01-12T00:57:28.804Z,2.60
2019-01-12T00:59:56.179Z,2.70
2019-01-12T01:02:23.722Z,2.60
2019-01-12T01:04:51.127Z,2.60
2019-01-12T01:07:18.700Z,2.70
2019-01-12T01:09:45.947Z,2.70
2019-01-12T01:12:13.418Z,2.80
2019-01-12T01:14:40.760Z,2.90
2019-01-12T01:17:08.230Z,2.90
2019-01-12T01:19:35.579Z,2.80
2019-01-12T01:22:03.063Z,2.80
2019-01-12T01:24:30.408Z,2.80
2019-01-12T01:26:57.878Z,2.80
2019-01-12T01:29:25.239Z,2.70
2019-01-12T01:31:52.755Z,2.70
2019-01-12T01:34:20.104Z,2.80
2019-01-12T01:36:47.632Z,2.70
2019-01-12T01:39:14.944Z,2.70
2019-01-12T01:41:42.416Z,2.80
2019-01-12T01:44:09.800Z,2.80
2019-01-12T01:46:37.117Z,2.70
2019-01-12T01:49:04.524Z,2.70
2019-01-12T01:51:32.004Z,2.70
2019-01-12T01:53:59.502Z,2.60
2019-01-12T01:56:26.821Z,2.60
2019-01-12T01:58:54.317Z,2.70
2019-01-12T02:01:21.816Z,2.70
2019-01-12T02:03:49.236Z,2.70
2019-01-12T02:06:16.602Z,2.80
2019-01-12T02:08:44.058Z,2.80
2019-01-12T02:11:11.307Z,2.70
2019-01-12T02:13:38.852Z,2.70
2019-01-12T02:16:06.205Z,2.70
2019-01-12T02:18:33.609Z,2.70
2019-01-12T02:21:00.973Z,2.60
2019-01-12T02:23:28.429Z,2.60
2019-01-12T02:25:55.993Z,2.60
2019-01-12T02:28:23.454Z,2.70
2019-01-12T02:30:50.993Z,2.70
2019-01-12T02:33:18.504Z,2.70
2019-01-12T02:35:45.916Z,2.80
2019-01-12T02:38:13.266Z,2.80
2019-01-12T02:40:40.719Z,2.80
2019-01-12T02:43:08.056Z,2.80
2019-01-12T02:45:35.577Z,2.80
2019-01-12T02:48:03.171Z,2.80
2019-01-12T02:50:30.676Z,2.70
2019-01-12T02:52:58.116Z,2.80
2019-01-12T02:55:25.533Z,2.70
2019-01-12T02:57:53.025Z,2.70
2019-01-12T03:00:20.426Z,2.70
2019-01-12T03:02:47.809Z,2.70
2019-01-12T03:05:15.287Z,2.80
2019-01-12T03:07:42.662Z,2.80
2019-01-12T03:10:10.987Z,2.80
2019-01-12T03:12:38.423Z,2.90
2019-01-12T03:15:07.569Z,2.90
2019-01-12T03:17:35.033Z,2.90
2019-01-12T03:20:02.588Z,2.90
2019-01-12T03:22:30.051Z,3.00
2019-01-12T03:24:57.367Z,3.00
2019-01-12T03:27:24.793Z,2.90
2019-01-12T03:29:52.136Z,2.90
2019-01-12T03:32:19.700Z,2.90
2019-01-12T03:34:47.049Z,2.90
2019-01-12T03:37:14.483Z,2.90
2019-01-12T03:39:41.909Z,2.90
2019-01-12T03:42:09.361Z,2.90
2019-01-12T03:44:36.734Z,2.90
2019-01-12T03:47:04.285Z,2.90
2019-01-12T03:49:31.741Z,2.80
2019-01-12T03:51:59.179Z,2.80
2019-01-12T03:54:26.600Z,2.80
2019-01-12T03:56:54.132Z,2.80
2019-01-12T03:59:21.623Z,2.90
2019-01-12T04:01:48.962Z,2.80
2019-01-12T04:04:16.390Z,2.80
2019-01-12T04:06:43.744Z,2.80
2019-01-12T04:09:11.256Z,2.70
2019-01-12T04:11:38.581Z,2.70
2019-01-12T04:14:06.007Z,2.80
2019-01-12T04:16:33.341Z,2.80
2019-01-12T04:19:00.921Z,2.80
2019-01-12T04:21:28.250Z,2.80
2019-01-12T04:23:55.980Z,2.80
2019-01-12T04:26:23.401Z,2.80
2019-01-12T04:28:50.824Z,2.90
2019-01-12T04:31:18.248Z,2.90
2019-01-12T04:33:45.676Z,2.90
2019-01-12T04:36:13.036Z,3.00
2019-01-12T04:38:40.600Z,3.00
2019-01-12T04:41:08.072Z,3.00
2019-01-12T04:43:35.420Z,3.00
2019-01-12T04:46:02.876Z,3.00
2019-01-12T04:48:30.198Z,3.10
2019-01-12T04:50:57.696Z,3.10
2019-01-12T04:53:25.028Z,3.00
2019-01-12T04:55:52.507Z,3.10
2019-01-12T04:58:20.002Z,3.10
2019-01-12T05:00:47.486Z,3.20
2019-01-12T05:03:14.918Z,3.10
2019-01-12T05:05:42.439Z,3.10
2019-01-12T05:08:09.893Z,3.20
2019-01-12T05:10:37.384Z,3.10
2019-01-12T05:13:04.720Z,3.20
2019-01-12T05:15:32.138Z,3.20
2019-01-12T05:17:59.493Z,3.20
2019-01-12T05:20:26.912Z,3.10
2019-01-12T05:22:54.261Z,3.20
2019-01-12T05:25:21.697Z,3.20
2019-01-12T05:27:49.032Z,3.10
2019-01-12T05:30:18.669Z,3.10
2019-01-12T05:32:45.988Z,3.00
2019-01-12T05:35:13.316Z,3.00
2019-01-12T05:37:40.715Z,2.90
2019-01-12T05:40:08.197Z,2.90
2019-01-12T05:42:35.636Z,2.90
2019-01-12T05:45:03.722Z,3.00
2019-01-12T05:47:31.203Z,3.00
2019-01-12T05:49:58.689Z,3.00
2019-01-12T05:52:26.363Z,3.00
2019-01-12T05:54:53.792Z,3.10
2019-01-12T05:57:21.273Z,3.20
2019-01-12T05:59:48.976Z,3.10
2019-01-12T06:02:16.524Z,3.10
2019-01-12T06:04:43.900Z,3.00
2019-01-12T06:07:11.427Z,3.00
2019-01-12T06:09:38.784Z,3.00
2019-01-12T06:12:18.984Z,3.00
2019-01-12T06:14:46.628Z,2.90
2019-01-12T06:17:14.216Z,3.00
2019-01-12T06:19:41.698Z,3.00
2019-01-12T06:22:09.179Z,3.00
2019-01-12T06:24:36.778Z,3.00
2019-01-12T06:27:04.423Z,3.00
2019-01-12T06:29:31.953Z,3.00
2019-01-12T06:31:59.519Z,3.00
2019-01-12T06:34:27.067Z,3.00
2019-01-12T06:36:54.590Z,3.00
2019-01-12T06:39:22.225Z,3.00
2019-01-12T06:41:50.245Z,3.00
2019-01-12T06:44:17.813Z,3.00
2019-01-12T06:46:45.370Z,3.00
2019-01-12T06:49:13.325Z,3.00
2019-01-12T06:51:40.885Z,3.00
2019-01-12T06:54:08.670Z,3.00
2019-01-12T06:56:36.741Z,3.00
2019-01-12T06:59:04.370Z,3.00
2019-01-12T07:01:31.907Z,3.00
2019-01-12T07:03:59.875Z,3.00
2019-01-12T07:06:28.357Z,3.00
2019-01-12T07:08:56.220Z,2.90
2019-01-12T07:11:24.170Z,2.90
2019-01-12T07:13:52.053Z,3.00
2019-01-12T07:16:20.011Z,3.00
2019-01-12T07:18:48.244Z,3.00
2019-01-12T07:21:16.362Z,3.10
2019-01-12T07:23:44.375Z,3.20
2019-01-12T07:26:17.520Z,3.20
2019-01-12T07:28:42.259Z,3.20
2019-01-12T07:31:10.264Z,3.30
2019-01-12T07:33:38.251Z,3.20
2019-01-12T07:36:06.474Z,3.20
2019-01-12T07:38:34.441Z,3.30
2019-01-12T07:41:02.653Z,3.20
2019-01-12T07:43:30.677Z,3.20
2019-01-12T07:45:58.621Z,3.20
2019-01-12T07:48:26.594Z,3.20
2019-01-12T07:50:54.873Z,3.30
2019-01-12T07:53:23.009Z,3.40
2019-01-12T07:55:50.891Z,3.40
2019-01-12T07:58:19.702Z,3.40
2019-01-12T08:00:49.645Z,3.50
2019-01-12T08:03:17.652Z,3.50
2019-01-12T08:05:45.528Z,3.50
2019-01-12T08:08:13.656Z,3.60
2019-01-12T08:10:41.667Z,3.50
2019-01-12T08:13:09.656Z,3.40
2019-01-12T08:15:37.645Z,3.40
2019-01-12T08:18:05.590Z,3.30
2019-01-12T08:20:33.449Z,3.30
2019-01-12T08:23:01.826Z,3.40
2019-01-12T08:25:29.735Z,3.30
2019-01-12T08:27:57.819Z,3.40
2019-01-12T08:30:25.724Z,3.30
2019-01-12T08:32:53.749Z,3.30
2019-01-12T08:35:21.744Z,3.30
2019-01-12T08:37:49.733Z,3.30
2019-01-12T08:40:17.804Z,3.30
2019-01-12T08:42:45.871Z,3.30
2019-01-12T08:45:14.065Z,3.30
2019-01-12T08:47:42.199Z,3.30
2019-01-12T08:50:21.140Z,3.30
2019-01-12T08:52:49.408Z,3.30
2019-01-12T08:55:17.553Z,3.30
2019-01-12T08:57:45.547Z,3.40
2019-01-12T09:00:16.418Z,3.40
2019-01-12T09:02:45.686Z,3.40
2019-01-12T09:05:13.642Z,3.40
2019-01-12T09:07:41.782Z,3.40
2019-01-12T09:10:13.684Z,3.40
2019-01-12T09:12:43.113Z,3.40
2019-01-12T09:15:11.673Z,3.50
2019-01-12T09:17:39.872Z,3.40
2019-01-12T09:20:09.034Z,3.40
2019-01-12T09:22:38.500Z,3.40
2019-01-12T09:25:07.857Z,3.40
2019-01-12T09:27:36.488Z,3.40
2019-01-12T09:30:06.789Z,3.40
2019-01-12T09:32:36.216Z,3.40
2019-01-12T09:35:04.923Z,3.40
2019-01-12T09:37:33.162Z,3.40
2019-01-12T09:40:01.442Z,3.50
2019-01-12T09:42:32.782Z,3.60
2019-01-12T09:45:00.733Z,3.60
2019-01-12T09:47:29.101Z,3.60
2019-01-12T09:49:57.001Z,3.60
2019-01-12T09:52:25.154Z,3.60
2019-01-12T09:54:53.178Z,3.60
2019-01-12T09:57:21.642Z,3.60
2019-01-12T09:59:49.609Z,3.50
2019-01-12T10:02:17.617Z,3.50
2019-01-12T10:04:45.682Z,3.60
2019-01-12T10:07:13.727Z,3.60
2019-01-12T10:09:41.882Z,3.60
2019-01-12T10:12:09.857Z,3.60
2019-01-12T10:14:37.989Z,3.60
2019-01-12T10:17:06.000Z,3.60
2019-01-12T10:19:34.071Z,3.60
2019-01-12T10:22:02.149Z,3.70
2019-01-12T10:24:30.411Z,3.70
2019-01-12T10:26:58.783Z,3.70
2019-01-12T10:29:26.918Z,3.70
2019-01-12T10:31:55.317Z,3.80
2019-01-12T10:34:26.603Z,3.80
2019-01-12T10:36:54.490Z,3.80
2019-01-12T10:39:22.457Z,3.70
2019-01-12T10:41:50.374Z,3.80
2019-01-12T10:44:18.501Z,3.80
2019-01-12T10:46:46.490Z,3.80
2019-01-12T10:49:14.605Z,3.90
2019-01-12T10:51:42.786Z,3.90
2019-01-12T10:54:10.679Z,4.00
2019-01-12T10:56:38.776Z,4.00
2019-01-12T10:59:06.807Z,4.10
2019-01-12T11:01:34.834Z,4.00
2019-01-12T11:04:03.154Z,4.00
2019-01-12T11:06:31.386Z,4.00
2019-01-12T11:08:59.540Z,4.00
2019-01-12T11:11:27.972Z,4.00
2019-01-12T11:13:56.743Z,4.00
2019-01-12T11:16:25.034Z,3.90
2019-01-12T11:18:53.330Z,3.90
2019-01-12T11:21:21.413Z,3.80
2019-01-12T11:23:49.482Z,3.90
2019-01-12T11:26:17.510Z,3.90
2019-01-12T11:28:45.839Z,3.90
2019-01-12T11:31:19.817Z,3.90
2019-01-12T11:33:44.140Z,4.00
2019-01-12T11:36:12.623Z,4.00
2019-01-12T11:38:40.829Z,4.10
2019-01-12T11:41:10.058Z,4.00
2019-01-12T11:43:38.747Z,4.00
2019-01-12T11:46:06.950Z,4.00
2019-01-12T11:48:34.997Z,4.00
2019-01-12T11:51:06.055Z,3.90
2019-01-12T11:53:36.501Z,4.00
2019-01-12T11:56:04.822Z,3.90
2019-01-12T11:58:33.307Z,3.90
2019-01-12T12:01:01.276Z,3.90
2019-01-12T12:03:30.097Z,3.90
2019-01-12T12:05:58.610Z,3.80
2019-01-12T12:08:26.797Z,3.90
2019-01-12T12:10:54.816Z,4.00
2019-01-12T12:13:23.172Z,4.00
2019-01-12T12:15:51.171Z,4.10
2019-01-12T12:18:19.640Z,4.10
2019-01-12T12:20:47.699Z,4.10
2019-01-12T12:23:15.816Z,4.30
2019-01-12T12:25:43.836Z,4.40
2019-01-12T12:28:12.096Z,4.40
2019-01-12T12:30:40.315Z,4.40
2019-01-12T12:33:08.362Z,4.20
2019-01-12T12:35:37.855Z,4.10
2019-01-12T12:38:06.259Z,4.10
2019-01-12T12:40:35.060Z,4.00
2019-01-12T12:43:04.201Z,4.00
2019-01-12T12:45:34.707Z,4.00
2019-01-12T12:48:02.690Z,4.00
2019-01-12T12:50:30.925Z,4.00
2019-01-12T12:53:01.088Z,4.00
2019-01-12T12:55:29.783Z,4.00
2019-01-12T12:57:58.029Z,4.00
2019-01-12T13:00:29.122Z,4.00
2019-01-12T13:02:57.137Z,4.00
2019-01-12T13:05:25.357Z,4.00
2019-01-12T13:07:53.377Z,4.00
2019-01-12T13:10:29.126Z,4.10
2019-01-12T13:12:57.215Z,4.00
2019-01-12T13:15:25.310Z,3.90
2019-01-12T13:17:53.302Z,3.90
2019-01-12T13:20:21.410Z,3.90
2019-01-12T13:22:49.532Z,3.90
2019-01-12T13:25:17.977Z,3.90
2019-01-12T13:27:46.152Z,3.90
2019-01-12T13:30:16.962Z,3.90
2019-01-12T13:32:46.601Z,3.90
2019-01-12T13:35:14.908Z,3.90
2019-01-12T13:37:43.321Z,3.90
2019-01-12T13:40:12.934Z,4.00
2019-01-12T13:42:42.418Z,4.00
2019-01-12T13:45:12.913Z,4.00
2019-01-12T13:47:42.404Z,4.10
2019-01-12T13:50:12.539Z,4.10
2019-01-12T13:52:42.536Z,4.10
2019-01-12T13:55:12.940Z,4.10
2019-01-12T13:57:47.430Z,4.10
2019-01-12T14:00:16.656Z,4.20
2019-01-12T14:02:46.142Z,4.20
2019-01-12T14:05:14.554Z,4.20
2019-01-12T14:07:42.583Z,4.20
2019-01-12T14:10:11.935Z,4.20
2019-01-12T14:12:41.799Z,4.20
2019-01-12T14:15:11.355Z,4.20
2019-01-12T14:17:40.918Z,4.20
2019-01-12T14:20:12.864Z,4.20
2019-01-12T14:22:42.256Z,4.10
2019-01-12T14:25:10.245Z,3.90
2019-01-12T14:27:38.148Z,3.90
2019-01-12T14:30:15.410Z,3.80
2019-01-12T14:32:40.292Z,3.80
2019-01-12T14:35:09.455Z,3.80
2019-01-12T14:37:38.911Z,3.80
2019-01-12T14:40:10.239Z,3.90
2019-01-12T14:42:39.703Z,3.80
2019-01-12T14:45:14.846Z,3.90
2019-01-12T14:47:44.385Z,3.90
2019-01-12T14:50:13.409Z,3.90
2019-01-12T14:52:41.323Z,3.90
2019-01-12T14:55:12.892Z,3.90
2019-01-12T14:57:42.435Z,3.90
2019-01-12T15:00:13.935Z,3.90
2019-01-12T15:02:43.437Z,3.90
2019-01-12T15:05:12.797Z,3.90
2019-01-12T15:07:42.387Z,3.90
2019-01-12T15:10:12.390Z,3.90
2019-01-12T15:12:42.029Z,4.00
2019-01-12T15:15:11.606Z,4.00
2019-01-12T15:17:41.162Z,4.10
2019-01-12T15:20:12.967Z,4.10
2019-01-12T15:22:43.291Z,4.20
2019-01-12T15:25:12.643Z,4.20
2019-01-12T15:27:41.058Z,4.30
2019-01-12T15:30:17.861Z,4.30
2019-01-12T15:32:47.592Z,4.30
2019-01-12T15:35:16.293Z,4.20
2019-01-12T15:37:45.347Z,4.30
2019-01-12T15:40:14.604Z,4.30
2019-01-12T15:42:44.095Z,4.30
2019-01-12T15:45:14.842Z,4.30
2019-01-12T15:47:44.339Z,4.30
2019-01-12T15:50:15.306Z,4.40
2019-01-12T15:52:44.916Z,4.40
2019-01-12T15:55:13.184Z,4.40
2019-01-12T15:57:41.254Z,4.40
2019-01-12T16:00:12.721Z,4.30
2019-01-12T16:02:42.370Z,4.30
2019-01-12T16:05:12.296Z,4.30
2019-01-12T16:07:40.273Z,4.40
2019-01-12T16:10:09.308Z,4.30
2019-01-12T16:12:38.496Z,4.30
2019-01-12T16:15:10.013Z,4.40
2019-01-12T16:17:39.586Z,4.40
2019-01-12T16:20:20.026Z,4.40
2019-01-12T16:22:49.576Z,4.40
2019-01-12T16:25:17.572Z,4.30
2019-01-12T16:27:45.572Z,4.40
2019-01-12T16:30:17.414Z,4.30
2019-01-12T16:32:46.852Z,4.30
2019-01-12T16:35:15.410Z,4.30
2019-01-12T16:37:43.939Z,4.30
2019-01-12T16:40:15.013Z,4.30
2019-01-12T16:42:44.479Z,4.30
2019-01-12T16:45:12.758Z,4.30
2019-01-12T16:47:41.444Z,4.20
2019-01-12T16:50:09.476Z,4.20
2019-01-12T16:52:37.309Z,4.20
2019-01-12T16:55:06.580Z,4.20
2019-01-12T16:57:36.067Z,4.20
2019-01-12T17:00:09.465Z,4.20
2019-01-12T17:02:38.969Z,4.20
2019-01-12T17:05:07.314Z,4.20
2019-01-12T17:07:35.372Z,4.20
2019-01-12T17:10:08.661Z,4.20
2019-01-12T17:12:38.132Z,4.20
2019-01-12T17:15:07.222Z,4.20
2019-01-12T17:17:36.823Z,4.10
2019-01-12T17:20:06.359Z,4.00
2019-01-12T17:22:36.253Z,3.90
2019-01-12T17:25:04.525Z,3.90
2019-01-12T17:27:33.521Z,3.80
2019-01-12T17:30:01.573Z,3.70
2019-01-12T17:32:31.543Z,3.70
2019-01-12T17:34:59.436Z,3.80
2019-01-12T17:37:27.659Z,3.70
2019-01-12T17:39:56.141Z,3.70
2019-01-12T17:42:24.330Z,3.70
2019-01-12T17:44:52.429Z,3.70
2019-01-12T17:47:20.658Z,3.60
2019-01-12T17:49:48.942Z,3.60
2019-01-12T17:52:16.926Z,3.60
2019-01-12T17:54:44.933Z,3.60
2019-01-12T17:57:13.198Z,3.50
2019-01-12T17:59:41.266Z,3.50
2019-01-12T18:02:09.607Z,3.40
2019-01-12T18:04:37.685Z,3.40
2019-01-12T18:07:05.872Z,3.40
2019-01-12T18:09:34.077Z,3.40
2019-01-12T18:12:02.238Z,3.30
2019-01-12T18:14:30.286Z,3.30
2019-01-12T18:19:48.258Z,3.30
2019-01-12T18:22:16.160Z,3.30
2019-01-12T18:24:44.250Z,3.20
2019-01-12T18:27:12.376Z,3.10
2019-01-12T18:29:40.465Z,3.10
2019-01-12T18:32:08.413Z,3.00
2019-01-12T18:34:36.399Z,3.00
2019-01-12T18:37:04.347Z,3.00
2019-01-12T18:39:32.507Z,2.90
2019-01-12T18:42:00.435Z,2.90
2019-01-12T18:44:28.638Z,2.90
2019-01-12T18:46:56.528Z,2.90
2019-01-12T18:49:24.552Z,2.90
2019-01-12T18:51:52.557Z,2.90
2019-01-12T18:54:22.475Z,2.90
2019-01-12T18:56:50.745Z,3.00
2019-01-12T18:59:18.750Z,3.00
2019-01-12T19:01:46.704Z,2.90
2019-01-12T19:04:14.692Z,2.90
2019-01-12T19:06:42.748Z,2.90
2019-01-12T19:09:10.641Z,2.90
2019-01-12T19:11:38.835Z,2.90
2019-01-12T19:14:06.975Z,2.90
2019-01-12T19:16:34.981Z,2.80
2019-01-12T19:19:03.113Z,2.80
2019-01-12T19:21:31.286Z,2.90
2019-01-12T19:23:59.360Z,2.90
2019-01-12T19:26:27.449Z,2.90
2019-01-12T19:28:55.492Z,2.90
2019-01-12T19:31:23.665Z,2.90
2019-01-12T19:33:51.604Z,2.90
2019-01-12T19:36:20.056Z,2.90
2019-01-12T19:38:48.164Z,2.90
2019-01-12T19:41:16.353Z,2.90
2019-01-12T19:43:44.310Z,2.90
2019-01-12T19:46:12.306Z,2.90
2019-01-12T19:48:40.470Z,2.90
2019-01-12T19:51:08.566Z,2.90
2019-01-12T19:53:36.610Z,2.90
2019-01-12T19:56:04.609Z,2.90
2019-01-12T19:58:32.579Z,2.90
2019-01-12T20:01:00.764Z,2.80
2019-01-12T20:03:28.848Z,2.90
2019-01-12T20:05:56.847Z,2.90
2019-01-12T20:08:24.929Z,2.90
2019-01-12T20:10:53.005Z,2.80
2019-01-12T20:13:21.046Z,2.80
2019-01-12T20:15:49.028Z,2.80
2019-01-12T20:18:17.041Z,2.80
2019-01-12T20:20:45.049Z,2.80
2019-01-12T20:23:13.131Z,2.80
2019-01-12T20:25:41.061Z,2.80
2019-01-12T20:28:12.316Z,2.90
2019-01-12T20:31:05.225Z,2.90
2019-01-12T20:34:03.066Z,2.90
2019-01-12T20:36:58.282Z,2.90
2019-01-12T20:39:39.621Z,2.90
2019-01-12T20:42:47.230Z,2.80
2019-01-12T20:45:41.326Z,2.80
2019-01-12T20:48:36.045Z,2.80
2019-01-12T20:51:46.055Z,2.80
2019-01-12T20:54:28.841Z,2.80
2019-01-12T20:57:37.436Z,2.90
2019-01-12T21:00:54.329Z,2.80
2019-01-12T21:04:10.589Z,2.80
2019-01-12T21:06:54.466Z,2.80
2019-01-12T21:10:14.883Z,2.80
2019-01-12T21:13:41.472Z,2.80
2019-01-12T21:16:15.429Z,2.90
2019-01-12T21:18:44.946Z,2.90
2019-01-12T21:21:13.130Z,2.90
2019-01-12T21:23:41.538Z,3.00
2019-01-12T21:26:09.747Z,2.90
2019-01-12T21:28:37.721Z,3.00
2019-01-12T21:31:05.811Z,3.00
2019-01-12T21:33:33.979Z,3.10
2019-01-12T21:36:01.933Z,3.00
2019-01-12T21:38:30.119Z,3.00
2019-01-12T21:40:58.016Z,3.10
2019-01-12T21:43:25.974Z,3.10
2019-01-12T21:45:53.855Z,3.10
2019-01-12T21:48:22.175Z,3.10
2019-01-12T21:50:50.208Z,3.10
2019-01-12T21:53:18.282Z,3.10
2019-01-12T21:55:46.251Z,3.20
2019-01-12T21:58:14.323Z,3.20
2019-01-12T22:00:42.350Z,3.20
2019-01-12T22:03:10.543Z,3.10
2019-01-12T22:05:38.412Z,3.20
2019-01-12T22:08:06.495Z,3.20
2019-01-12T22:10:34.550Z,3.30
2019-01-12T22:13:02.821Z,3.20
2019-01-12T22:15:30.797Z,3.20
2019-01-12T22:17:58.798Z,3.20
2019-01-12T22:20:26.861Z,3.20
2019-01-12T22:22:57.075Z,3.20
2019-01-12T22:25:25.328Z,3.30
2019-01-12T22:27:53.499Z,3.30
2019-01-12T22:30:21.480Z,3.30
2019-01-12T22:32:49.488Z,3.30
2019-01-12T22:35:17.547Z,3.30
2019-01-12T22:37:45.466Z,3.30
2019-01-12T22:40:15.984Z,3.30
2019-01-12T22:42:45.373Z,3.30
2019-01-12T22:45:13.741Z,3.30
2019-01-12T22:47:41.794Z,3.30
2019-01-12T22:50:11.402Z,3.40
2019-01-12T22:52:41.123Z,3.40
2019-01-12T22:55:10.745Z,3.40
2019-01-12T22:57:39.397Z,3.50
2019-01-12T23:00:43.729Z,3.50
2019-01-12T23:03:13.124Z,3.50
2019-01-12T23:05:41.322Z,3.60
2019-01-12T23:08:09.325Z,3.60
2019-01-12T23:10:37.366Z,3.60
2019-01-12T23:13:05.403Z,3.50
2019-01-12T23:15:33.282Z,3.50
2019-01-12T23:18:01.421Z,3.50
2019-01-12T23:20:30.203Z,3.50
2019-01-12T23:22:58.423Z,3.50
2019-01-12T23:25:26.409Z,3.50
2019-01-12T23:27:54.442Z,3.60
2019-01-12T23:30:22.432Z,3.60
2019-01-12T23:32:50.497Z,3.70
2019-01-12T23:35:18.516Z,3.70
2019-01-12T23:37:46.554Z,3.70
2019-01-12T23:40:14.831Z,3.80
2019-01-12T23:42:43.173Z,3.70
2019-01-12T23:45:11.506Z,3.60
2019-01-12T23:47:40.485Z,3.60
2019-01-12T23:50:08.517Z,3.60
2019-01-12T23:52:38.059Z,3.60
2019-01-12T23:55:06.251Z,3.60
2019-01-12T23:57:34.614Z,3.60
